Startpagina
METAR-TAF:

METAR-TAF

Vliegvelden :

Cannes, Frankrijk

breedte: 43-33N, lengte: 006-57E, hoogte: 3 m

Actueel weer

Dit bericht is 30 minuten geleden gemaakt, om 18:30 UTC
Wind 2 kt uit variabele richting
Temperatuur 13°C
Vochtigheid 54%
Druk 1022 hPa
Zicht 10 km of meer
geen wolken onder 1500 m en geen cumulonimbus

METAR: LFMD 231830Z AUTO VRB02KT CAVOK 13/04 Q1022 NOSIG

Tijdstip: 20:00 (19:00 UTC)

Verwachting

Dit bericht is 5 uur en het 0 minuten geleden gemaakt, om 14:00 UTC
Verwachting geldig van 23 om 15 UTC tot 24 om 15 UTC
Wind 5 kt uit het zuidzuidoosten
Zicht 10 km of meer
geen wolken onder 1500 m en geen cumulonimbus
Wijzigt naar
van 23 om 18 UTC tot 23 om 20 UTC
Wind 5 kt uit het noorden
Wijzigt naar
van 24 om 09 UTC tot 24 om 11 UTC
Wind 10 kt uit het zuidzuidoosten

TAF: LFMD 231400Z 2315/2415 15005KT CAVOK BECMG 2318/2320 35005KT BECMG 2409/2411 16010KT

Waarnemingen en weersverwachtingen van meer dan 4000 vliegvelden (METAR en TAF).

De beschikbare stations zijn de gele en rode punten op de kaart.

Ga met uw muis naar het station om de naam te zien.

Klik dan om waarnemingen en weersverwachtingen te zien.

kaart wijzigen: klik op de groene knoppen met een zwart kruis om in te zoomen, op de groene knop met een streepje om uit te zoomen of op de groene pijlen voor aangrenzende kaarten.


METAR-TAF: